Aigle Des Mers — FO4883 — position and weather

sailwx.info

Track history (hours):
 
Tides and Currents Weather Stations Pressure Air Temp Water Temp Dewpoint Dewpoint Depression Visibility Wind Speed Wind Dir Waves Ship Positions

Aigle Des Mers

Last reported at 2016-May-04 01:33 UTC. Time now 2016-May-05 01:02 UTC.
Position N 48°06' W 004°19'.

Type: Fishing. MMSI: 227318010.

Date/timePositionNaut miles runAvg speedWind from/ knotsBaromVisibWave heightAir tempDewpointWater temp
2016-May-04 01:33N 48°06' W 004°19'0 0.0
2016-May-04 00:33N 48°06' W 004°19'0 0.1
2016-May-03 23:33N 48°06' W 004°19'7 7.0
2016-May-03 22:33N 48°09' W 004°29'9 8.5
2016-May-03 21:33N 48°11' W 004°41'2 1.8
2016-May-03 20:34N 48°12' W 004°44'0 0.2
2016-May-03 19:33N 48°11' W 004°44'6 5.9
2016-May-03 18:33N 48°09' W 004°36'11 8.2
2016-May-03 17:10N 48°06' W 004°19'0 0.0
2016-May-02 23:33N 48°06' W 004°20'4 4.2
2016-May-02 22:34N 48°10' W 004°23'6 6.4
2016-May-02 21:33N 48°08' W 004°32'7 7.0
2016-May-02 20:34N 48°11' W 004°42'0 0.4
2016-May-02 19:34N 48°11' W 004°43'4 4.1
2016-May-02 18:34N 48°10' W 004°37'5 5.3
2016-May-02 17:33N 48°11' W 004°29'6 4.3
2016-May-02 16:16N 48°07' W 004°23'3 4.4
2016-May-02 15:33N 48°06' W 004°19'0 0.0
2016-May-01 23:34N 48°06' W 004°19'0 0.2
2016-May-01 22:33N 48°06' W 004°19'9 9.3
2016-May-01 21:34N 48°09' W 004°32'9 8.7
2016-May-01 20:33N 48°12' W 004°45'1 0.7
2016-May-01 19:34N 48°11' W 004°45'5 5.0
2016-May-01 18:33N 48°08' W 004°39'9 8.5
2016-May-01 17:29N 48°07' W 004°25'  
2016-Apr-28 23:33N 48°06' W 004°19'0 0.1
2016-Apr-28 22:33N 48°06' W 004°19'9 8.8
2016-Apr-28 21:34N 48°08' W 004°32'7 7.0
2016-Apr-28 20:33N 48°10' W 004°42'0 0.2
2016-Apr-28 19:34N 48°10' W 004°42'7 6.2
2016-Apr-28 18:27N 48°09' W 004°32'9 7.9
2016-Apr-28 17:17N 48°06' W 004°19'0 0.0
2016-Apr-28 00:18N 48°06' W 004°20'0 0.1
2016-Apr-27 23:34N 48°06' W 004°20'2 2.1
2016-Apr-27 22:33N 48°07' W 004°22'9 9.0
2016-Apr-27 21:34N 48°08' W 004°35'5 5.4
2016-Apr-27 20:34N 48°09' W 004°43'1 0.6
2016-Apr-27 19:34N 48°10' W 004°43'6 5.7
2016-Apr-27 18:33N 48°09' W 004°35'11 8.5
2016-Apr-27 17:17N 48°06' W 004°19'2 0.0
2016-Apr-25 21:34N 48°08' W 004°20'4 4.2
2016-Apr-25 20:34N 48°11' W 004°23'2 2.2
2016-Apr-25 19:34N 48°12' W 004°26'2 2.4
2016-Apr-25 18:34N 48°11' W 004°30'9 6.3
2016-Apr-25 17:09N 48°06' W 004°19'0 0.0
2016-Apr-25 03:11N 48°06' W 004°20'0 0.1
2016-Apr-25 02:31N 48°06' W 004°20'0 0.0
2016-Apr-25 01:34N 48°06' W 004°20'0 0.0
2016-Apr-25 00:34N 48°06' W 004°20'0 0.3
2016-Apr-24 23:34N 48°06' W 004°19'9 8.9
2016-Apr-24 22:33N 48°08' W 004°32'8 7.7
2016-Apr-24 21:33N 48°09' W 004°44'1 0.9
2016-Apr-24 20:33N 48°09' W 004°43'1 0.6
2016-Apr-24 19:34N 48°10' W 004°43'9 7.9
2016-Apr-24 18:25N 48°08' W 004°30'7 8.4
2016-Apr-24 17:34N 48°06' W 004°19'  
Track history (hours):
 
Tides and Currents Weather Stations Pressure Air Temp Water Temp Dewpoint Dewpoint Depression Visibility Wind Speed Wind Dir Waves Ship Positions

Aigle Des Mers

Last reported at 2016-May-04 01:33 UTC. Time now 2016-May-05 01:02 UTC.
Position N 48°06' W 004°19'.

Type: Fishing. MMSI: 227318010.

Date/timePositionNaut miles runAvg speedWind from/ knotsBaromVisibWave heightAir tempDewpointWater temp
2016-May-04 01:33N 48°06' W 004°19'0 0.0
2016-May-04 00:33N 48°06' W 004°19'0 0.1
2016-May-03 23:33N 48°06' W 004°19'7 7.0
2016-May-03 22:33N 48°09' W 004°29'9 8.5
2016-May-03 21:33N 48°11' W 004°41'2 1.8
2016-May-03 20:34N 48°12' W 004°44'0 0.2
2016-May-03 19:33N 48°11' W 004°44'6 5.9
2016-May-03 18:33N 48°09' W 004°36'11 8.2
2016-May-03 17:10N 48°06' W 004°19'0 0.0
2016-May-02 23:33N 48°06' W 004°20'4 4.2
2016-May-02 22:34N 48°10' W 004°23'6 6.4
2016-May-02 21:33N 48°08' W 004°32'7 7.0
2016-May-02 20:34N 48°11' W 004°42'0 0.4
2016-May-02 19:34N 48°11' W 004°43'4 4.1
2016-May-02 18:34N 48°10' W 004°37'5 5.3
2016-May-02 17:33N 48°11' W 004°29'6 4.3
2016-May-02 16:16N 48°07' W 004°23'3 4.4
2016-May-02 15:33N 48°06' W 004°19'0 0.0
2016-May-01 23:34N 48°06' W 004°19'0 0.2
2016-May-01 22:33N 48°06' W 004°19'9 9.3
2016-May-01 21:34N 48°09' W 004°32'9 8.7
2016-May-01 20:33N 48°12' W 004°45'1 0.7
2016-May-01 19:34N 48°11' W 004°45'5 5.0
2016-May-01 18:33N 48°08' W 004°39'9 8.5
2016-May-01 17:29N 48°07' W 004°25'  
2016-Apr-28 23:33N 48°06' W 004°19'0 0.1
2016-Apr-28 22:33N 48°06' W 004°19'9 8.8
2016-Apr-28 21:34N 48°08' W 004°32'7 7.0
2016-Apr-28 20:33N 48°10' W 004°42'0 0.2
2016-Apr-28 19:34N 48°10' W 004°42'7 6.2
2016-Apr-28 18:27N 48°09' W 004°32'9 7.9
2016-Apr-28 17:17N 48°06' W 004°19'0 0.0
2016-Apr-28 00:18N 48°06' W 004°20'0 0.1
2016-Apr-27 23:34N 48°06' W 004°20'2 2.1
2016-Apr-27 22:33N 48°07' W 004°22'9 9.0
2016-Apr-27 21:34N 48°08' W 004°35'5 5.4
2016-Apr-27 20:34N 48°09' W 004°43'1 0.6
2016-Apr-27 19:34N 48°10' W 004°43'6 5.7
2016-Apr-27 18:33N 48°09' W 004°35'11 8.5
2016-Apr-27 17:17N 48°06' W 004°19'2 0.0
2016-Apr-25 21:34N 48°08' W 004°20'4 4.2
2016-Apr-25 20:34N 48°11' W 004°23'2 2.2
2016-Apr-25 19:34N 48°12' W 004°26'2 2.4
2016-Apr-25 18:34N 48°11' W 004°30'9 6.3
2016-Apr-25 17:09N 48°06' W 004°19'0 0.0
2016-Apr-25 03:11N 48°06' W 004°20'0 0.1
2016-Apr-25 02:31N 48°06' W 004°20'0 0.0
2016-Apr-25 01:34N 48°06' W 004°20'0 0.0
2016-Apr-25 00:34N 48°06' W 004°20'0 0.3
2016-Apr-24 23:34N 48°06' W 004°19'9 8.9
2016-Apr-24 22:33N 48°08' W 004°32'8 7.7
2016-Apr-24 21:33N 48°09' W 004°44'1 0.9
2016-Apr-24 20:33N 48°09' W 004°43'1 0.6
2016-Apr-24 19:34N 48°10' W 004°43'9 7.9
2016-Apr-24 18:25N 48°08' W 004°30'7 8.4
2016-Apr-24 17:34N 48°06' W 004°19'  

Dump ship's entire track history